To NAV CANADA Home Page Login to a new session Search on AWWS site Feedback and Comments Disclaimer Vers la page française équivalente Tips FAQ What's new on the site To the Forecasts and Observations / NOTAM section To "File a Flight Plan" website Publications and other links Update of the User's profile FIC Telephone Numbers My Weather Data Folder Route Weather Data Regional Weather Data Local Weather Data To the Forecasts and Observations / NOTAM section
Request Generated 02/23/2017 at 20:45:46 UTC . Weather information available at that time is displayed.

METAR/TAF

ST. ANTHONY/NL    (show WxCam)

METAR CYAY 232000Z AUTO 26011KT 9SM CLR M00/M04 A2971 RMK SLP063=
METAR CYAY 231900Z AUTO 27014G20KT 9SM CLR 00/M05 A2969 RMK SLP057=
METAR CYAY 231800Z AUTO 27016G22KT 9SM CLR 01/M04 A2968 RMK SLP053=

TAF CYAY 231938Z 2320/2408 27012KT P6SM SCT015 TEMPO 2320/2324 BKN015
FM240000 24006KT P6SM BKN015 OVC090
FM240400 VRB03KT 1SM -SN VV010 TEMPO 2404/2408 3SM -SN OVC020
RMK FCST BASED ON AUTO OBS. NXT FCST BY 240200Z=
Your time UTC time
Weather data provided by Environment Canada and NAV CANADA